Time;durP1;ratioP1;P1;durP2;ratioP2;P2;SDS_P1;SDS_P2;PMS_P1;PMS_P2;Temp;Humidity;BMP_temperature;BMP_pressure;BME280_temperature;BME280_humidity;BME280_pressure;Samples;Min_cycle;Max_cycle;Signal;HPM_P1;HPM_P2
2022/05/18 00:00:16;;;;;;;0.10;0.00;;;;;;;;;;5048799;28;20123;-62
2022/05/18 00:02:43;;;;;;;0.00;0.00;;;;;;;;;;5062434;28;21051;-62
2022/05/18 00:05:09;;;;;;;0.00;0.00;;;;;;;;;;5065175;28;20535;-62
2022/05/18 00:07:35;;;;;;;0.00;0.00;;;;;;;;;;5064223;28;20567;-62
2022/05/18 00:10:03;;;;;;;0.00;0.00;;;;;;;;;;5048522;28;20096;-62
2022/05/18 00:12:29;;;;;;;0.00;0.00;;;;;;;;;;5055016;28;20084;-62
2022/05/18 00:14:55;;;;;;;0.00;0.00;;;;;;;;;;5067154;28;20284;-62
2022/05/18 00:17:22;;;;;;;0.00;0.00;;;;;;;;;;5067993;28;20179;-62
2022/05/18 00:19:48;;;;;;;0.00;0.00;;;;;;;;;;5068072;28;20057;-62
2022/05/18 00:22:15;;;;;;;0.10;0.10;;;;;;;;;;5068144;28;20076;-62
2022/05/18 00:24:41;;;;;;;0.00;0.00;;;;;;;;;;5062854;28;20049;-62
2022/05/18 00:27:07;;;;;;;0.00;0.00;;;;;;;;;;5062226;28;20057;-62
2022/05/18 00:29:34;;;;;;;0.00;0.00;;;;;;;;;;5067909;28;20057;-62
2022/05/18 00:32:00;;;;;;;0.00;0.00;;;;;;;;;;5067995;28;20049;-62
2022/05/18 00:34:27;;;;;;;0.00;0.00;;;;;;;;;;5056917;28;20061;-62
2022/05/18 00:36:54;;;;;;;0.00;0.00;;;;;;;;;;5060558;28;20061;-62
2022/05/18 00:39:21;;;;;;;0.10;0.10;;;;;;;;;;5062697;28;20107;-62
2022/05/18 00:41:48;;;;;;;0.05;0.05;;;;;;;;;;5067033;28;20091;-62
2022/05/18 00:44:14;;;;;;;0.20;0.05;;;;;;;;;;5067087;28;20450;-62
2022/05/18 00:46:41;;;;;;;0.00;0.00;;;;;;;;;;5067715;28;20057;-62
2022/05/18 00:49:08;;;;;;;0.20;0.10;;;;;;;;;;5050599;28;20092;-62
2022/05/18 00:51:38;;;;;;;0.00;0.00;;;;;;;;;;5048205;28;20543;-62
2022/05/18 00:54:16;;;;;;;0.00;0.00;;;;;;;;;;5047318;28;20528;-62
2022/05/18 00:56:49;;;;;;;0.00;0.00;;;;;;;;;;5047611;28;20057;-61
2022/05/18 00:59:18;;;;;;;0.00;0.00;;;;;;;;;;5048127;28;20112;-61
2022/05/18 01:01:44;;;;;;;0.00;0.00;;;;;;;;;;5067624;28;20049;-61
2022/05/18 01:04:12;;;;;;;0.00;0.00;;;;;;;;;;5066210;28;20466;-62
2022/05/18 01:06:58;;;;;;;0.22;0.13;;;;;;;;;;5067813;28;20111;-62
2022/05/18 01:09:27;;;;;;;0.00;0.00;;;;;;;;;;5063954;28;20053;-62
2022/05/18 01:11:53;;;;;;;;;;;;;;;;;;5065617;28;20141;-62
2022/05/18 01:14:19;;;;;;;0.00;0.00;;;;;;;;;;5066218;28;44575;-62
2022/05/18 01:16:46;;;;;;;0.20;0.10;;;;;;;;;;5054582;28;20053;-62
2022/05/18 01:19:19;;;;;;;0.00;0.00;;;;;;;;;;5046717;28;20136;-61
2022/05/18 01:21:50;;;;;;;0.00;0.00;;;;;;;;;;5047415;28;20053;-61
2022/05/18 01:24:33;;;;;;;0.00;0.00;;;;;;;;;;5049710;28;20058;-62
2022/05/18 01:27:01;;;;;;;0.00;0.00;;;;;;;;;;5050847;28;20088;-62
2022/05/18 01:29:27;;;;;;;;;;;;;;;;;;5050628;28;20053;-62
2022/05/18 01:31:57;;;;;;;0.15;0.15;;;;;;;;;;5049263;28;44707;-61
2022/05/18 01:34:26;;;;;;;0.00;0.00;;;;;;;;;;5065620;28;20049;-61
2022/05/18 01:36:53;;;;;;;0.00;0.00;;;;;;;;;;5069312;28;20122;-62
2022/05/18 01:39:21;;;;;;;0.00;0.00;;;;;;;;;;5070334;28;20077;-61
2022/05/18 01:41:54;;;;;;;0.00;0.00;;;;;;;;;;5069270;28;20533;-61
2022/05/18 01:44:21;;;;;;;0.00;0.00;;;;;;;;;;5070689;28;20053;-62
2022/05/18 01:46:48;;;;;;;0.00;0.00;;;;;;;;;;5070410;28;20092;-61
2022/05/18 01:49:15;;;;;;;0.00;0.00;;;;;;;;;;5054022;28;20490;-62
2022/05/18 01:51:45;;;;;;;0.00;0.00;;;;;;;;;;5070917;28;20104;-61
2022/05/18 01:54:12;;;;;;;0.00;0.00;;;;;;;;;;5069052;28;20573;-62
2022/05/18 01:56:38;;;;;;;0.00;0.00;;;;;;;;;;5071351;28;20057;-61
2022/05/18 01:59:05;;;;;;;0.00;0.00;;;;;;;;;;5069496;28;20543;-61
2022/05/18 02:01:31;;;;;;;0.00;0.00;;;;;;;;;;5050018;28;20598;-61
2022/05/18 02:03:58;;;;;;;0.10;0.10;;;;;;;;;;5049994;28;20900;-61
2022/05/18 02:06:24;;;;;;;0.00;0.00;;;;;;;;;;5051205;28;20077;-61
2022/05/18 02:08:50;;;;;;;0.00;0.00;;;;;;;;;;5050128;28;20089;-61
2022/05/18 02:11:18;;;;;;;0.00;0.00;;;;;;;;;;5050271;28;20111;-61
2022/05/18 02:13:45;;;;;;;0.15;0.10;;;;;;;;;;5063459;28;20119;-61
2022/05/18 02:16:11;;;;;;;0.25;0.20;;;;;;;;;;5069462;28;20126;-61
2022/05/18 02:18:38;;;;;;;0.00;0.00;;;;;;;;;;5068809;28;21039;-61
2022/05/18 02:21:05;;;;;;;0.00;0.00;;;;;;;;;;5069422;28;20111;-61
2022/05/18 02:23:32;;;;;;;0.03;0.03;;;;;;;;;;5052394;28;20057;-61
2022/05/18 02:26:01;;;;;;;0.17;0.10;;;;;;;;;;5070125;28;20138;-61
2022/05/18 02:28:28;;;;;;;0.10;0.10;;;;;;;;;;5070184;28;20116;-61
2022/05/18 02:30:54;;;;;;;0.00;0.00;;;;;;;;;;5069942;28;20639;-61
2022/05/18 02:33:20;;;;;;;0.05;0.05;;;;;;;;;;5069464;28;20080;-61
2022/05/18 02:35:47;;;;;;;0.00;0.00;;;;;;;;;;5063148;28;20061;-62
2022/05/18 02:38:13;;;;;;;0.00;0.00;;;;;;;;;;5049309;28;20479;-61
2022/05/18 02:40:40;;;;;;;0.10;0.00;;;;;;;;;;5050402;28;20096;-61
2022/05/18 02:43:06;;;;;;;0.13;0.10;;;;;;;;;;5065819;28;20107;-61
2022/05/18 02:45:32;;;;;;;0.00;0.00;;;;;;;;;;5069421;28;20049;-61
2022/05/18 02:47:59;;;;;;;0.38;0.38;;;;;;;;;;5059467;28;20089;-61
2022/05/18 02:50:26;;;;;;;0.55;0.10;;;;;;;;;;5049570;28;20058;-61
2022/05/18 02:52:52;;;;;;;0.20;0.20;;;;;;;;;;5048870;28;20120;-61
2022/05/18 02:58:03;;;;;;;0.08;0.08;;;;;;;;;;5062483;28;20053;-61
2022/05/18 03:00:30;;;;;;;0.00;0.00;;;;;;;;;;5063394;28;20886;-61
2022/05/18 03:02:56;;;;;;;0.20;0.10;;;;;;;;;;5068381;28;20474;-61
2022/05/18 03:05:23;;;;;;;0.00;0.00;;;;;;;;;;5068737;28;20123;-61
2022/05/18 03:07:50;;;;;;;0.00;0.00;;;;;;;;;;5068922;28;20064;-61
2022/05/18 03:10:18;;;;;;;0.00;0.00;;;;;;;;;;5057503;28;20053;-61
2022/05/18 03:12:44;;;;;;;;;;;;;;;;;;5050101;28;20061;-61
2022/05/18 03:15:11;;;;;;;0.00;0.00;;;;;;;;;;5048184;28;45115;-61
2022/05/18 03:17:38;;;;;;;0.00;0.00;;;;;;;;;;5048764;28;20058;-61
2022/05/18 03:20:05;;;;;;;0.40;0.40;;;;;;;;;;5049461;28;20159;-61
2022/05/18 03:25:16;;;;;;;0.22;0.20;;;;;;;;;;5054783;28;20618;-61
2022/05/18 03:27:43;;;;;;;0.00;0.00;;;;;;;;;;5069305;28;20124;-61
2022/05/18 03:30:11;;;;;;;0.00;0.00;;;;;;;;;;5055291;28;20108;-61
2022/05/18 03:32:39;;;;;;;0.00;0.00;;;;;;;;;;5059645;28;20103;-61
2022/05/18 03:35:06;;;;;;;0.00;0.00;;;;;;;;;;5056273;28;20107;-61
2022/05/18 03:37:33;;;;;;;0.00;0.00;;;;;;;;;;5068633;28;20076;-61
2022/05/18 03:39:59;;;;;;;0.10;0.05;;;;;;;;;;5064076;28;20087;-61
2022/05/18 03:42:26;;;;;;;0.17;0.10;;;;;;;;;;5068469;28;20107;-61
2022/05/18 03:44:53;;;;;;;0.05;0.03;;;;;;;;;;5068643;28;20111;-61
2022/05/18 03:47:19;;;;;;;0.00;0.00;;;;;;;;;;5066278;28;20111;-61
2022/05/18 03:49:45;;;;;;;0.25;0.05;;;;;;;;;;5067963;28;20111;-61
2022/05/18 03:52:12;;;;;;;0.00;0.00;;;;;;;;;;5068184;28;20057;-61
2022/05/18 03:54:38;;;;;;;0.00;0.00;;;;;;;;;;5058261;28;20120;-61
2022/05/18 03:57:06;;;;;;;0.03;0.03;;;;;;;;;;5048185;28;20054;-61
2022/05/18 03:59:32;;;;;;;0.00;0.00;;;;;;;;;;5048537;28;20508;-61
2022/05/18 04:01:59;;;;;;;0.03;0.03;;;;;;;;;;5048419;28;20147;-61
2022/05/18 04:04:25;;;;;;;0.20;0.15;;;;;;;;;;5048293;28;20459;-61
2022/05/18 04:06:51;;;;;;;0.10;0.05;;;;;;;;;;5061958;28;20134;-61
2022/05/18 04:09:18;;;;;;;0.00;0.00;;;;;;;;;;5067042;28;20061;-61
2022/05/18 04:11:44;;;;;;;0.00;0.00;;;;;;;;;;5059458;28;20549;-61
2022/05/18 04:14:11;;;;;;;0.00;0.00;;;;;;;;;;5048037;28;20100;-61
2022/05/18 04:16:37;;;;;;;0.00;0.00;;;;;;;;;;5048191;28;20877;-61
2022/05/18 04:19:03;;;;;;;0.00;0.00;;;;;;;;;;5051760;28;20060;-61
2022/05/18 04:21:31;;;;;;;0.20;0.10;;;;;;;;;;5067589;28;20106;-61
2022/05/18 04:23:57;;;;;;;0.00;0.00;;;;;;;;;;5053571;28;20053;-61
2022/05/18 04:26:23;;;;;;;0.10;0.05;;;;;;;;;;5048177;28;20296;-61
2022/05/18 04:28:50;;;;;;;0.00;0.00;;;;;;;;;;5049051;28;20109;-61
2022/05/18 04:31:16;;;;;;;0.43;0.08;;;;;;;;;;5057968;28;20148;-61
2022/05/18 04:33:42;;;;;;;0.00;0.00;;;;;;;;;;5048505;28;20053;-61
2022/05/18 04:36:09;;;;;;;0.00;0.00;;;;;;;;;;5048108;28;20049;-61
2022/05/18 04:38:35;;;;;;;0.08;0.00;;;;;;;;;;5047879;28;20054;-61
2022/05/18 04:41:01;;;;;;;0.00;0.00;;;;;;;;;;5062560;28;20049;-61
2022/05/18 04:43:32;;;;;;;0.15;0.08;;;;;;;;;;5067147;28;20049;-61
2022/05/18 04:45:58;;;;;;;0.00;0.00;;;;;;;;;;5062699;28;20511;-61
2022/05/18 04:48:27;;;;;;;0.00;0.00;;;;;;;;;;5066444;28;20502;-61
2022/05/18 04:50:53;;;;;;;0.00;0.00;;;;;;;;;;5061633;28;20571;-61
2022/05/18 04:53:20;;;;;;;0.00;0.00;;;;;;;;;;5064326;28;20064;-61
2022/05/18 04:55:47;;;;;;;0.00;0.00;;;;;;;;;;5066987;28;20053;-61
2022/05/18 04:58:13;;;;;;;0.00;0.00;;;;;;;;;;5053697;28;20050;-61
2022/05/18 05:00:41;;;;;;;0.00;0.00;;;;;;;;;;5050454;28;20578;-61
2022/05/18 05:03:07;;;;;;;0.00;0.00;;;;;;;;;;5050652;28;20471;-61
2022/05/18 05:05:34;;;;;;;0.00;0.00;;;;;;;;;;5050152;28;20053;-61
2022/05/18 05:08:00;;;;;;;0.00;0.00;;;;;;;;;;5050543;28;20573;-61
2022/05/18 05:10:26;;;;;;;0.00;0.00;;;;;;;;;;5062743;28;20053;-61
2022/05/18 05:12:54;;;;;;;0.25;0.17;;;;;;;;;;5069056;28;20053;-61
2022/05/18 05:15:20;;;;;;;0.00;0.00;;;;;;;;;;5052162;28;20084;-61
2022/05/18 05:17:47;;;;;;;0.00;0.00;;;;;;;;;;5050244;28;20054;-61
2022/05/18 05:20:14;;;;;;;0.00;0.00;;;;;;;;;;5063155;28;20056;-61
2022/05/18 05:22:40;;;;;;;0.00;0.00;;;;;;;;;;5070830;28;20057;-62
2022/05/18 05:25:07;;;;;;;0.32;0.20;;;;;;;;;;5069776;28;20518;-61
2022/05/18 05:27:33;;;;;;;0.00;0.00;;;;;;;;;;5070386;28;20052;-61
2022/05/18 05:29:59;;;;;;;0.00;0.00;;;;;;;;;;5070219;28;20057;-61
2022/05/18 05:32:26;;;;;;;0.30;0.30;;;;;;;;;;5067765;28;20056;-61
2022/05/18 05:34:52;;;;;;;0.00;0.00;;;;;;;;;;5070156;28;20054;-61
2022/05/18 05:37:18;;;;;;;0.05;0.03;;;;;;;;;;5070235;28;20057;-61
2022/05/18 05:39:45;;;;;;;0.45;0.17;;;;;;;;;;5068708;28;20486;-61
2022/05/18 05:42:11;;;;;;;1.35;0.60;;;;;;;;;;5054631;28;20056;-61
2022/05/18 05:44:38;;;;;;;0.00;0.00;;;;;;;;;;5070173;28;20593;-61
2022/05/18 05:47:09;;;;;;;0.08;0.08;;;;;;;;;;5070365;28;20053;-61
2022/05/18 05:49:37;;;;;;;0.00;0.00;;;;;;;;;;5069566;28;20138;-61
2022/05/18 05:52:04;;;;;;;0.10;0.10;;;;;;;;;;5069817;28;20057;-61
2022/05/18 05:54:31;;;;;;;0.00;0.00;;;;;;;;;;5067956;28;20057;-61
2022/05/18 05:56:57;;;;;;;0.28;0.28;;;;;;;;;;5069747;28;20096;-61
2022/05/18 05:59:23;;;;;;;0.00;0.00;;;;;;;;;;5059958;28;20049;-61
2022/05/18 06:02:00;;;;;;;0.00;0.00;;;;;;;;;;5049735;28;20941;-61
2022/05/18 06:04:30;;;;;;;0.00;0.00;;;;;;;;;;5051698;28;20053;-61
2022/05/18 06:06:57;;;;;;;0.00;0.00;;;;;;;;;;5069437;28;20507;-61
2022/05/18 06:09:23;;;;;;;0.00;0.00;;;;;;;;;;5064796;28;20146;-61
2022/05/18 06:11:50;;;;;;;0.00;0.00;;;;;;;;;;5057491;28;20522;-61
2022/05/18 06:14:17;;;;;;;0.00;0.00;;;;;;;;;;5049350;28;20049;-61
2022/05/18 06:16:46;;;;;;;0.00;0.00;;;;;;;;;;5062046;28;20087;-60
2022/05/18 06:19:13;;;;;;;0.45;0.45;;;;;;;;;;5068494;28;20057;-61
2022/05/18 06:21:40;;;;;;;0.00;0.00;;;;;;;;;;5052288;28;20057;-61
2022/05/18 06:24:07;;;;;;;0.00;0.00;;;;;;;;;;5049374;28;20577;-61
2022/05/18 06:26:34;;;;;;;0.15;0.03;;;;;;;;;;5050358;28;20478;-61
2022/05/18 06:29:00;;;;;;;0.00;0.00;;;;;;;;;;5048876;28;20085;-61
2022/05/18 06:31:26;;;;;;;0.00;0.00;;;;;;;;;;5049185;28;20092;-60
2022/05/18 06:33:53;;;;;;;0.05;0.05;;;;;;;;;;5048806;28;20053;-61
2022/05/18 06:36:19;;;;;;;0.00;0.00;;;;;;;;;;5048528;28;20102;-61
2022/05/18 06:38:45;;;;;;;0.00;0.00;;;;;;;;;;5066321;28;20127;-61
2022/05/18 06:41:24;;;;;;;0.10;0.10;;;;;;;;;;5069139;28;20565;-60
2022/05/18 06:43:58;;;;;;;0.00;0.00;;;;;;;;;;5069100;28;20585;-61
2022/05/18 06:46:25;;;;;;;0.10;0.10;;;;;;;;;;5068983;28;20506;-61
2022/05/18 06:48:53;;;;;;;0.00;0.00;;;;;;;;;;5052717;28;20057;-61
2022/05/18 06:51:20;;;;;;;0.00;0.00;;;;;;;;;;5048444;28;20107;-61
2022/05/18 06:53:48;;;;;;;0.13;0.10;;;;;;;;;;5048514;28;20084;-61
2022/05/18 06:56:14;;;;;;;0.00;0.00;;;;;;;;;;5057192;28;20057;-61
2022/05/18 06:58:41;;;;;;;0.00;0.00;;;;;;;;;;5068127;28;20292;-61
2022/05/18 07:01:12;;;;;;;0.00;0.00;;;;;;;;;;5067936;28;20056;-61
2022/05/18 07:03:39;;;;;;;0.00;0.00;;;;;;;;;;5068875;28;20546;-61
2022/05/18 07:06:05;;;;;;;0.00;0.00;;;;;;;;;;5068670;28;20049;-61
2022/05/18 07:08:32;;;;;;;0.00;0.00;;;;;;;;;;5067880;28;20587;-61
2022/05/18 07:10:58;;;;;;;0.00;0.00;;;;;;;;;;5056053;28;20050;-61
2022/05/18 07:13:25;;;;;;;0.00;0.00;;;;;;;;;;5067067;28;20980;-61
2022/05/18 07:15:51;;;;;;;0.10;0.10;;;;;;;;;;5066822;28;20185;-61
2022/05/18 07:18:19;;;;;;;0.10;0.00;;;;;;;;;;5067752;28;20143;-61
2022/05/18 07:20:46;;;;;;;0.00;0.00;;;;;;;;;;5067807;28;20107;-61
2022/05/18 07:23:13;;;;;;;0.38;0.20;;;;;;;;;;5067302;28;20048;-61
2022/05/18 07:25:39;;;;;;;0.22;0.05;;;;;;;;;;5067595;28;20150;-61
2022/05/18 07:28:06;;;;;;;0.00;0.00;;;;;;;;;;5067891;28;20103;-61
2022/05/18 07:30:48;;;;;;;0.00;0.00;;;;;;;;;;5067340;28;20487;-61
2022/05/18 07:33:15;;;;;;;0.00;0.00;;;;;;;;;;5068052;28;20099;-61
2022/05/18 07:35:41;;;;;;;0.00;0.00;;;;;;;;;;5067692;28;20099;-62
2022/05/18 07:38:08;;;;;;;0.00;0.00;;;;;;;;;;5067023;28;20057;-61
2022/05/18 07:40:55;;;;;;;0.00;0.00;;;;;;;;;;5068139;28;20044;-61
2022/05/18 07:43:22;;;;;;;0.08;0.08;;;;;;;;;;5067230;28;20150;-61
2022/05/18 07:45:49;;;;;;;0.00;0.00;;;;;;;;;;5067436;28;20480;-61
2022/05/18 07:48:18;;;;;;;0.52;0.32;;;;;;;;;;5065765;28;20057;-61
2022/05/18 07:50:45;;;;;;;0.15;0.05;;;;;;;;;;5068189;28;20507;-61
2022/05/18 07:53:12;;;;;;;0.00;0.00;;;;;;;;;;5067447;28;20053;-61
2022/05/18 07:55:38;;;;;;;0.40;0.40;;;;;;;;;;5067907;28;20057;-61
2022/05/18 07:58:06;;;;;;;0.22;0.08;;;;;;;;;;5067096;28;20127;-61
2022/05/18 08:00:32;;;;;;;0.00;0.00;;;;;;;;;;5067501;28;20080;-61
2022/05/18 08:02:59;;;;;;;0.00;0.00;;;;;;;;;;5067862;28;20084;-61
2022/05/18 08:05:28;;;;;;;0.00;0.00;;;;;;;;;;5067611;28;20092;-61
2022/05/18 08:07:54;;;;;;;0.00;0.00;;;;;;;;;;5067634;28;20106;-61
2022/05/18 08:15:53;;;;;;;0.00;0.00;;;;;;;;;;5067635;28;20135;-61
2022/05/18 08:18:20;;;;;;;0.35;0.15;;;;;;;;;;5067508;28;20505;-61
2022/05/18 08:20:51;;;;;;;0.00;0.00;;;;;;;;;;5067101;28;20056;-60
2022/05/18 08:23:17;;;;;;;0.00;0.00;;;;;;;;;;5067243;28;20517;-60
2022/05/18 08:25:46;;;;;;;0.00;0.00;;;;;;;;;;5067839;28;20868;-60
2022/05/18 08:28:13;;;;;;;0.00;0.00;;;;;;;;;;5066830;28;20532;-60
2022/05/18 08:30:40;;;;;;;0.15;0.05;;;;;;;;;;5066362;28;20545;-59
2022/05/18 08:33:07;;;;;;;0.00;0.00;;;;;;;;;;5062673;28;20604;-59
2022/05/18 08:35:33;;;;;;;0.00;0.00;;;;;;;;;;5065178;28;20130;-60
2022/05/18 08:38:00;;;;;;;0.20;0.10;;;;;;;;;;5066452;28;20053;-61
2022/05/18 08:40:35;;;;;;;0.00;0.00;;;;;;;;;;5066581;28;20053;-61
2022/05/18 08:43:03;;;;;;;0.00;0.00;;;;;;;;;;5066705;28;20107;-61
2022/05/18 08:45:31;;;;;;;0.05;0.05;;;;;;;;;;5067887;28;20056;-61
2022/05/18 08:48:05;;;;;;;0.00;0.00;;;;;;;;;;5065916;28;20527;-60
2022/05/18 08:50:32;;;;;;;0.55;0.20;;;;;;;;;;5067002;28;20075;-60
2022/05/18 08:53:07;;;;;;;0.00;0.00;;;;;;;;;;5066720;28;20080;-60
2022/05/18 08:55:43;;;;;;;0.00;0.00;;;;;;;;;;5066530;28;20057;-59
2022/05/18 08:58:12;;;;;;;0.00;0.00;;;;;;;;;;5062167;28;20103;-59
2022/05/18 09:00:44;;;;;;;0.00;0.00;;;;;;;;;;5067014;28;20118;-60
2022/05/18 09:03:15;;;;;;;0.00;0.00;;;;;;;;;;5066543;28;20118;-60
2022/05/18 09:05:59;;;;;;;0.00;0.00;;;;;;;;;;5066436;28;20057;-59
2022/05/18 09:08:29;;;;;;;0.00;0.00;;;;;;;;;;5067135;28;20084;-59
2022/05/18 09:11:03;;;;;;;0.20;0.10;;;;;;;;;;5066649;28;20111;-60
2022/05/18 09:13:36;;;;;;;0.30;0.15;;;;;;;;;;5067212;28;20131;-60
2022/05/18 09:16:06;;;;;;;0.00;0.00;;;;;;;;;;5066313;28;20057;-60
2022/05/18 09:18:50;;;;;;;0.22;0.10;;;;;;;;;;5066781;28;20056;-59
2022/05/18 09:21:17;;;;;;;0.00;0.00;;;;;;;;;;5066554;28;20100;-60
2022/05/18 09:23:50;;;;;;;0.00;0.00;;;;;;;;;;5066690;28;20570;-59
2022/05/18 09:26:19;;;;;;;0.00;0.00;;;;;;;;;;5066805;28;20061;-60
2022/05/18 09:28:53;;;;;;;0.65;0.45;;;;;;;;;;5065577;28;20103;-60
2022/05/18 09:31:25;;;;;;;0.00;0.00;;;;;;;;;;5066573;28;20542;-59
2022/05/18 09:34:10;;;;;;;0.00;0.00;;;;;;;;;;5066236;28;20547;-60
2022/05/18 09:36:37;;;;;;;0.00;0.00;;;;;;;;;;5083519;28;20540;-59
2022/05/18 09:39:08;;;;;;;0.00;0.00;;;;;;;;;;5077277;28;20053;-59
2022/05/18 09:41:38;;;;;;;0.10;0.10;;;;;;;;;;5063748;28;20057;-59
2022/05/18 09:44:10;;;;;;;0.00;0.00;;;;;;;;;;5060844;28;20126;-60
2022/05/18 09:46:37;;;;;;;0.00;0.00;;;;;;;;;;5062032;28;20589;-59
2022/05/18 09:49:10;;;;;;;0.30;0.20;;;;;;;;;;5049339;28;20064;-60
2022/05/18 09:51:37;;;;;;;0.00;0.00;;;;;;;;;;5062599;28;20106;-60
2022/05/18 09:54:03;;;;;;;0.00;0.00;;;;;;;;;;5069486;28;20056;-60
2022/05/18 09:56:32;;;;;;;0.15;0.10;;;;;;;;;;5065652;28;20521;-59
2022/05/18 09:59:01;;;;;;;0.00;0.00;;;;;;;;;;5050155;28;20092;-59
2022/05/18 10:09:52;;;;;;;0.00;0.00;;;;;;;;;;5059936;28;20057;-59
2022/05/18 10:12:23;;;;;;;0.00;0.00;;;;;;;;;;5069325;28;20053;-59
2022/05/18 10:14:51;;;;;;;0.00;0.00;;;;;;;;;;5069738;28;20115;-59
2022/05/18 10:17:19;;;;;;;0.00;0.00;;;;;;;;;;5069115;28;20099;-60
2022/05/18 10:19:50;;;;;;;0.00;0.00;;;;;;;;;;5057447;28;20088;-60
2022/05/18 10:22:23;;;;;;;0.00;0.00;;;;;;;;;;5068834;28;20123;-60
2022/05/18 10:24:54;;;;;;;0.00;0.00;;;;;;;;;;5069618;28;20061;-60
2022/05/18 10:27:28;;;;;;;0.00;0.00;;;;;;;;;;5068920;28;20052;-59
2022/05/18 10:30:04;;;;;;;0.00;0.00;;;;;;;;;;5056766;28;20524;-60
2022/05/18 10:32:31;;;;;;;0.35;0.35;;;;;;;;;;5049080;28;20119;-60
2022/05/18 10:34:59;;;;;;;0.00;0.00;;;;;;;;;;5049248;28;20058;-60
2022/05/18 10:37:38;;;;;;;0.10;0.10;;;;;;;;;;5058566;28;20060;-60
2022/05/18 10:40:09;;;;;;;0.03;0.03;;;;;;;;;;5055617;28;20576;-60
2022/05/18 10:42:45;;;;;;;0.00;0.00;;;;;;;;;;5050128;28;20088;-60
2022/05/18 10:45:26;;;;;;;0.00;0.00;;;;;;;;;;5049025;28;20859;-59
2022/05/18 10:47:58;;;;;;;0.08;0.08;;;;;;;;;;5048821;28;20053;-59
2022/05/18 10:50:27;;;;;;;0.00;0.00;;;;;;;;;;5049192;28;20061;-59
2022/05/18 10:53:00;;;;;;;0.00;0.00;;;;;;;;;;5049549;28;20056;-59
2022/05/18 10:55:30;;;;;;;0.00;0.00;;;;;;;;;;5067255;28;20053;-59
2022/05/18 10:57:57;;;;;;;0.00;0.00;;;;;;;;;;5069177;28;20057;-59
2022/05/18 11:00:26;;;;;;;0.00;0.00;;;;;;;;;;5068667;28;20557;-59
2022/05/18 11:03:12;;;;;;;0.00;0.00;;;;;;;;;;5068673;28;20041;-59
2022/05/18 11:05:47;;;;;;;0.00;0.00;;;;;;;;;;5074949;28;20052;-59
2022/05/18 11:08:19;;;;;;;0.00;0.00;;;;;;;;;;5088426;28;20057;-59
2022/05/18 11:10:58;;;;;;;0.00;0.00;;;;;;;;;;5085926;28;20240;-59
2022/05/18 11:13:32;;;;;;;0.03;0.03;;;;;;;;;;5067813;28;20462;-59
2022/05/18 11:16:09;;;;;;;0.00;0.00;;;;;;;;;;5068561;28;20053;-59
2022/05/18 11:18:41;;;;;;;0.00;0.00;;;;;;;;;;5068681;28;20828;-59
2022/05/18 11:21:21;;;;;;;0.00;0.00;;;;;;;;;;5068224;28;20056;-59
2022/05/18 11:23:56;;;;;;;0.00;0.00;;;;;;;;;;5066378;28;20107;-60
2022/05/18 11:26:28;;;;;;;0.00;0.00;;;;;;;;;;5047772;28;20565;-60
2022/05/18 11:29:18;;;;;;;0.00;0.00;;;;;;;;;;5048609;28;20103;-60
2022/05/18 11:32:10;;;;;;;0.00;0.00;;;;;;;;;;5048114;28;20678;-60
2022/05/18 11:34:40;;;;;;;0.00;0.00;;;;;;;;;;5044603;28;20057;-60
2022/05/18 11:37:19;;;;;;;0.05;0.05;;;;;;;;;;5047153;28;20054;-60
2022/05/18 11:39:58;;;;;;;0.00;0.00;;;;;;;;;;5048193;28;20050;-60
2022/05/18 11:42:24;;;;;;;0.00;0.00;;;;;;;;;;5047848;28;20057;-60
2022/05/18 11:44:50;;;;;;;0.00;0.00;;;;;;;;;;5049305;28;20053;-60
2022/05/18 11:47:23;;;;;;;0.00;0.00;;;;;;;;;;5067407;28;20841;-60
2022/05/18 11:49:58;;;;;;;0.00;0.00;;;;;;;;;;5067712;28;20127;-60
2022/05/18 11:52:50;;;;;;;0.00;0.00;;;;;;;;;;5053391;28;20057;-59
2022/05/18 11:55:23;;;;;;;0.00;0.00;;;;;;;;;;5064042;28;20052;-59
2022/05/18 11:57:58;;;;;;;0.00;0.00;;;;;;;;;;5048004;28;20061;-59
2022/05/18 12:00:46;;;;;;;0.05;0.05;;;;;;;;;;5047575;28;20084;-59
2022/05/18 12:03:31;;;;;;;0.05;0.05;;;;;;;;;;5050883;28;20841;-59
2022/05/18 12:06:16;;;;;;;0.17;0.08;;;;;;;;;;5047739;28;20500;-59
2022/05/18 12:09:01;;;;;;;0.00;0.00;;;;;;;;;;5061534;28;20053;-59
2022/05/18 12:11:47;;;;;;;0.00;0.00;;;;;;;;;;5066152;28;20080;-59
2022/05/18 12:14:32;;;;;;;0.08;0.05;;;;;;;;;;5056132;28;20061;-59
2022/05/18 12:17:06;;;;;;;0.00;0.00;;;;;;;;;;5047289;28;20554;-59
2022/05/18 12:19:35;;;;;;;0.00;0.00;;;;;;;;;;5064003;28;20588;-59
2022/05/18 12:22:04;;;;;;;0.00;0.00;;;;;;;;;;5054645;28;20087;-59
2022/05/18 12:24:32;;;;;;;0.00;0.00;;;;;;;;;;5067514;28;20041;-59
2022/05/18 12:26:58;;;;;;;0.00;0.00;;;;;;;;;;5068021;28;20114;-59
2022/05/18 12:29:25;;;;;;;0.00;0.00;;;;;;;;;;5056742;28;20112;-59
2022/05/18 12:31:54;;;;;;;0.40;0.30;;;;;;;;;;5047285;28;20049;-61
2022/05/18 12:34:23;;;;;;;0.00;0.00;;;;;;;;;;5052803;28;20729;-58
2022/05/18 12:36:57;;;;;;;0.00;0.00;;;;;;;;;;5064487;28;20077;-59
2022/05/18 12:39:42;;;;;;;0.00;0.00;;;;;;;;;;5066943;28;20135;-59
2022/05/18 12:42:10;;;;;;;0.00;0.00;;;;;;;;;;5067014;28;20513;-59
2022/05/18 12:44:37;;;;;;;;;;;;;;;;;;5056637;28;20057;-59
2022/05/18 12:47:10;;;;;;;0.22;0.20;;;;;;;;;;5046448;28;45897;-59
2022/05/18 12:49:38;;;;;;;0.10;0.10;;;;;;;;;;5046426;28;20115;-58
2022/05/18 12:52:23;;;;;;;0.00;0.00;;;;;;;;;;5050877;28;20045;-59
2022/05/18 12:54:53;;;;;;;0.00;0.00;;;;;;;;;;5048964;28;20057;-59
2022/05/18 12:57:22;;;;;;;0.00;0.00;;;;;;;;;;5063472;28;20102;-59
2022/05/18 13:00:07;;;;;;;0.00;0.00;;;;;;;;;;5066784;28;20559;-59
2022/05/18 13:02:40;;;;;;;0.00;0.00;;;;;;;;;;5052046;28;20500;-59
2022/05/18 13:05:27;;;;;;;0.00;0.00;;;;;;;;;;5046867;28;20108;-59
2022/05/18 13:07:54;;;;;;;0.00;0.00;;;;;;;;;;5046640;28;20045;-58
2022/05/18 13:10:28;;;;;;;0.00;0.00;;;;;;;;;;5056095;28;20052;-58
2022/05/18 13:12:58;;;;;;;0.00;0.00;;;;;;;;;;5067154;28;20111;-58
2022/05/18 13:15:25;;;;;;;0.30;0.10;;;;;;;;;;5062773;28;20104;-59
2022/05/18 13:17:56;;;;;;;0.00;0.00;;;;;;;;;;5046595;28;20590;-58
2022/05/18 13:20:25;;;;;;;0.00;0.00;;;;;;;;;;5050218;28;20841;-58
2022/05/18 13:22:59;;;;;;;0.00;0.00;;;;;;;;;;5068438;28;20061;-58
2022/05/18 13:25:27;;;;;;;0.10;0.10;;;;;;;;;;5069930;28;20478;-58
2022/05/18 13:27:56;;;;;;;0.10;0.10;;;;;;;;;;5065710;28;20103;-59
2022/05/18 13:30:30;;;;;;;0.00;0.00;;;;;;;;;;5069874;28;20060;-58
2022/05/18 13:33:16;;;;;;;0.00;0.00;;;;;;;;;;5070983;28;20148;-58
2022/05/18 13:35:45;;;;;;;0.00;0.00;;;;;;;;;;5068138;28;20115;-58
2022/05/18 13:38:13;;;;;;;0.10;0.10;;;;;;;;;;5054032;28;20593;-58
2022/05/18 13:40:45;;;;;;;0.00;0.00;;;;;;;;;;5050091;28;20561;-58
2022/05/18 13:43:14;;;;;;;0.00;0.00;;;;;;;;;;5049906;28;20522;-59
2022/05/18 13:45:43;;;;;;;0.10;0.10;;;;;;;;;;5056079;28;20146;-59
2022/05/18 13:48:11;;;;;;;0.05;0.05;;;;;;;;;;5053672;28;20057;-60
2022/05/18 13:50:59;;;;;;;0.10;0.10;;;;;;;;;;5049650;28;20060;-60
2022/05/18 13:53:44;;;;;;;0.30;0.17;;;;;;;;;;5050127;28;20050;-60
2022/05/18 13:56:15;;;;;;;0.00;0.00;;;;;;;;;;5068934;28;20064;-60
2022/05/18 13:58:44;;;;;;;0.10;0.10;;;;;;;;;;5069412;28;20111;-60
2022/05/18 14:01:13;;;;;;;0.00;0.00;;;;;;;;;;5062886;28;20081;-60
2022/05/18 14:03:43;;;;;;;0.10;0.10;;;;;;;;;;5070065;28;20053;-60
2022/05/18 14:06:12;;;;;;;0.00;0.00;;;;;;;;;;5070317;28;20049;-60
2022/05/18 14:08:58;;;;;;;0.10;0.10;;;;;;;;;;5049679;28;20050;-60
2022/05/18 14:11:28;;;;;;;0.63;0.43;;;;;;;;;;5049427;28;20081;-60
2022/05/18 14:13:56;;;;;;;0.00;0.00;;;;;;;;;;5049441;28;20057;-60
2022/05/18 14:16:44;;;;;;;0.00;0.00;;;;;;;;;;5053887;28;20168;-60
2022/05/18 14:19:13;;;;;;;0.10;0.10;;;;;;;;;;5054302;28;20049;-60
2022/05/18 14:21:41;;;;;;;0.15;0.10;;;;;;;;;;5049687;28;20507;-60
2022/05/18 14:24:09;;;;;;;0.13;0.10;;;;;;;;;;5049845;28;20080;-59
2022/05/18 14:26:41;;;;;;;0.20;0.20;;;;;;;;;;5053209;28;20085;-60
2022/05/18 14:29:09;;;;;;;0.10;0.10;;;;;;;;;;5068070;28;20949;-60
2022/05/18 14:31:40;;;;;;;0.00;0.00;;;;;;;;;;5069178;28;20475;-59
2022/05/18 14:34:08;;;;;;;0.00;0.00;;;;;;;;;;5069362;28;20509;-60
2022/05/18 14:36:42;;;;;;;0.00;0.00;;;;;;;;;;5053979;28;20064;-60
2022/05/18 14:39:17;;;;;;;0.00;0.00;;;;;;;;;;5049834;28;20053;-59
2022/05/18 14:41:46;;;;;;;0.00;0.00;;;;;;;;;;5049519;28;20057;-61
2022/05/18 14:44:12;;;;;;;;;;;;;;;;;;5048785;28;20061;-58
2022/05/18 14:46:44;;;;;;;0.17;0.05;;;;;;;;;;5052457;28;45738;-60
2022/05/18 14:49:12;;;;;;;0.10;0.10;;;;;;;;;;5060684;28;20053;-60
2022/05/18 14:51:43;;;;;;;0.00;0.00;;;;;;;;;;5049070;28;20057;-60
2022/05/18 14:54:24;;;;;;;0.10;0.10;;;;;;;;;;5049241;28;20139;-60
2022/05/18 14:56:52;;;;;;;0.00;0.00;;;;;;;;;;5055547;28;20049;-60
2022/05/18 14:59:20;;;;;;;0.22;0.10;;;;;;;;;;5054458;28;20566;-60
2022/05/18 15:01:50;;;;;;;0.20;0.10;;;;;;;;;;5067237;28;20111;-59
2022/05/18 15:04:31;;;;;;;0.40;0.40;;;;;;;;;;5068821;28;20064;-57
2022/05/18 15:07:04;;;;;;;0.10;0.10;;;;;;;;;;5068239;28;20095;-60
2022/05/18 15:09:34;;;;;;;0.00;0.00;;;;;;;;;;5069135;28;20111;-57
2022/05/18 15:12:05;;;;;;;0.03;0.03;;;;;;;;;;5069158;28;20053;-60
2022/05/18 15:14:32;;;;;;;0.30;0.30;;;;;;;;;;5068818;28;20556;-60
2022/05/18 15:17:00;;;;;;;0.00;0.00;;;;;;;;;;5058712;28;20106;-60
2022/05/18 15:19:31;;;;;;;0.10;0.00;;;;;;;;;;5048150;28;20091;-61